General Aviation Weather

Text Reports

Enter one or more of the following location identifiers separated by a space:

Zip Code, Four-Character ICAO or Three-Character IATA airport codes.

METAR - Aviation Routine Weather Report
EDDS - Stuttgart Echterdingen,
Updated at 9:50 PM GMT on May 25, 2015 (11:50 PM CEST):
METAR EDDS 252150Z 28003KT 9999 FEW034 BKN053 12/11 Q1014
TAF - Terminal Area Forecast
EDDS - Stuttgart Echterdingen,
Updated at 9:50 PM GMT on May 25, 2015 (11:50 PM CEST):
TAF EDDS 251700Z 2518/2618 28005KT 9999 SCT035
      TEMPO 2518/2523 SHRA SCT025CB
      TEMPO 2600/2608 BKN011
      BECMG 2609/2611 33010KT=

Decoded:
ID: EDDS   Stuttgart/Echte, DL
REPORT TIME: 25 17: 0
VALID TIME: 25 May AT 18:00Z to 26 May AT 18:00Z.
INITIAL WX
   WINDS: 280 AT 5
   CLOUDS: 35 SCT
TEMPORARY WX FROM 18Z TO 23Z
   WEATHER: SHRA
   CLOUDS: 25 SCT WITH CB
TEMPORARY WX FROM 00Z TO 08Z
   CLOUDS: 11 BKN
WX BECOMING FROM 09Z TO 11Z
   WINDS: 330 AT 10
   COMMENTS: = 

INITIAL WX
   WEATHER: TAF_AMD_CYQH
   COMMENTS: 251725Z 2517/2524 VRB03KT P6SM SCT100 
TEMPORARY WX FROM 17Z TO 21Z
   VISIBILITY: 5.0 MILES
   WEATHER: FU
   CLOUDS: 40 SCT
   CLOUDS: 100 BKN
NEW WX STARTING: 21:00Z
   WINDS: 150 AT 8
   VISIBILITY: >6.0 MILES
   CLOUDS: 100 BKN
TEMPORARY WX FROM 21Z TO 24Z
   VISIBILITY: >6.0 MILES
   WEATHER: -SHRA
   CLOUDS: 40 SCT
   CLOUDS: 80 BKN
30% PROBABILITY OF WX FROM 22Z TO 24Z
   WIND: VARIABLE AT 15 GUST 25
   VISIBILITY: 4.0 MILES
   WEATHER: TSRA
   CLOUDS: 40 BKN WITH CB
   COMMENTS: RMK NXT FCST BY 251800Z= 

PIREP - Pilot Weather Report
EDDS - Stuttgart Echterdingen,
Updated at 9:50 PM GMT on May 25, 2015 (11:50 PM CEST):
No PIREP is currently available for this location.
AIRMET - Airmens Meteorological Information
EDDS - Stuttgart Echterdingen,
Updated at 9:50 PM GMT on May 25, 2015 (11:50 PM CEST):
No AIRMET is currently available for this location.
SIGMET - Significant Meteorological Information
EDDS - Stuttgart Echterdingen,
Updated at 9:50 PM GMT on May 25, 2015 (11:50 PM CEST):
No SIGMET is currently available for this location.
NOTAM - Notice to Airmen
EDDS - Stuttgart Echterdingen,
Updated at 9:50 PM GMT on May 25, 2015 (11:50 PM CEST):
No NOTAM is currently available for this location.
Forecast Area
EDDS - Stuttgart Echterdingen,
Updated at 9:50 PM GMT on May 25, 2015 (11:50 PM CEST):
No NOTAM is currently available for this location.
Aviation Weather Maps